El Nuevo Dorado International Airport (BOG/SKBO)




Flight Aircraft Arriving
CPX626 B763
KMIA - Miami International Airport
United StatesFlorida Miami, Florida
Flight Aircraft Departing
CPX627 B763
KMIA - Miami International Airport
United StatesFlorida Miami, Florida
Airport Information
Location: Bogota, CO
Coordinates: 4.70306 / -74.1383
Elevation:
Time Offset:
Local Time:
UTC Time:
Jet A Price: $/lbs

Current Weather
METAR: SKBO 050700Z 04003KT 9999 SCT020 SCT070 13/11 A3030 NOSIG
TAF: TAF SKBO 050430Z 0506/0606 05005KT 9999 SCT020 TEMPO 0508/0512 7000 VCFG DZ SCT013 BECMG 0515/0517 13010KT TEMPO 0519/0523 VCSH SCT018TCU TX21/0518Z TN10/0510Z

Recent Arrivals
Date Flight Type Depart
02/21/2020 CPX627 B763 Miami International Airport (KMIA)
01/02/2020 CPX627 B763 Miami International Airport (KMIA)
Recent Departures
Date Flight Type Arrive
04/05/2020 CPX626 B763 Miami International Airport (KMIA)
01/05/2020 CPX626 B763 Miami International Airport (KMIA)